Time;durP1;ratioP1;P1;durP2;ratioP2;P2;SDS_P1;SDS_P2;PMS_P1;PMS_P2;Temp;Humidity;BMP_temperature;BMP_pressure;BME280_temperature;BME280_humidity;BME280_pressure;Samples;Min_cycle;Max_cycle;Signal;HPM_P1;HPM_P2
2023/04/20 00:01:07;;;;;;;10.40;6.67;;;;;;;;;;4991123;28;20220;-70
2023/04/20 00:03:34;;;;;;;11.03;7.27;;;;;;;;;;4978608;28;20245;-70
2023/04/20 00:06:00;;;;;;;10.80;7.37;;;;;;;;;;4994418;28;20196;-70
2023/04/20 00:08:27;;;;;;;11.73;7.43;;;;;;;;;;4974946;28;20765;-70
2023/04/20 00:10:54;;;;;;;12.43;7.27;;;;;;;;;;4993725;28;20239;-72
2023/04/20 00:13:21;;;;;;;12.60;7.63;;;;;;;;;;4977158;28;20215;-73
2023/04/20 00:15:47;;;;;;;10.63;7.50;;;;;;;;;;4995606;28;20267;-72
2023/04/20 00:18:14;;;;;;;10.43;7.57;;;;;;;;;;4996157;28;20220;-73
2023/04/20 00:20:41;;;;;;;10.53;6.97;;;;;;;;;;4990722;28;20707;-73
2023/04/20 00:23:07;;;;;;;13.17;8.13;;;;;;;;;;4989464;28;20416;-71
2023/04/20 00:25:34;;;;;;;10.23;7.63;;;;;;;;;;4993760;28;20212;-73
2023/04/20 00:28:00;;;;;;;13.30;8.63;;;;;;;;;;4993903;28;20208;-73
2023/04/20 00:30:28;;;;;;;10.43;7.97;;;;;;;;;;4979020;28;20457;-73
2023/04/20 00:32:54;;;;;;;11.40;7.73;;;;;;;;;;4990911;28;20211;-72
2023/04/20 00:35:21;;;;;;;14.10;8.77;;;;;;;;;;4977355;28;20213;-74
2023/04/20 00:37:48;;;;;;;14.27;9.07;;;;;;;;;;4974362;28;20221;-72
2023/04/20 00:40:15;;;;;;;13.03;9.40;;;;;;;;;;4990366;28;20235;-68
2023/04/20 00:42:41;;;;;;;16.60;10.03;;;;;;;;;;4993518;28;20205;-70
2023/04/20 00:45:08;;;;;;;13.57;9.83;;;;;;;;;;4987348;28;20698;-70
2023/04/20 00:47:38;;;;;;;13.30;9.37;;;;;;;;;;4981523;28;21507;-70
2023/04/20 00:50:05;;;;;;;15.43;9.20;;;;;;;;;;4968841;28;20235;-69
2023/04/20 00:52:32;;;;;;;15.37;9.40;;;;;;;;;;4982179;28;20208;-70
2023/04/20 00:54:58;;;;;;;16.00;9.60;;;;;;;;;;4983960;28;20593;-69
2023/04/20 00:57:25;;;;;;;14.27;9.13;;;;;;;;;;4982527;28;20201;-68
2023/04/20 00:59:51;;;;;;;15.80;9.70;;;;;;;;;;4989830;28;20220;-70
2023/04/20 01:02:18;;;;;;;16.27;9.23;;;;;;;;;;4974826;28;20316;-72
2023/04/20 01:04:46;;;;;;;12.70;8.43;;;;;;;;;;4973059;28;20291;-73
2023/04/20 01:07:13;;;;;;;13.40;8.67;;;;;;;;;;4974201;28;20300;-73
2023/04/20 01:09:39;;;;;;;16.80;9.03;;;;;;;;;;4978467;28;20260;-73
2023/04/20 01:12:06;;;;;;;17.03;9.60;;;;;;;;;;4968643;28;20756;-70
2023/04/20 01:14:32;;;;;;;13.23;8.60;;;;;;;;;;4974660;28;20205;-70
2023/04/20 01:16:58;;;;;;;14.27;8.80;;;;;;;;;;4970554;28;20222;-69
2023/04/20 01:19:25;;;;;;;12.93;8.40;;;;;;;;;;4975140;28;20228;-70
2023/04/20 01:21:53;;;;;;;14.83;9.03;;;;;;;;;;4992896;28;20218;-69
2023/04/20 01:24:21;;;;;;;13.07;8.40;;;;;;;;;;4991120;28;20579;-70
2023/04/20 01:26:47;;;;;;;14.43;8.70;;;;;;;;;;4984789;28;20205;-70
2023/04/20 01:29:13;;;;;;;13.07;7.97;;;;;;;;;;4986203;28;20669;-70
2023/04/20 01:31:42;;;;;;;13.90;8.23;;;;;;;;;;4985680;28;20354;-70
2023/04/20 01:34:08;;;;;;;12.60;7.70;;;;;;;;;;4973031;28;20292;-69
2023/04/20 01:36:35;;;;;;;14.57;8.03;;;;;;;;;;4976284;28;20946;-70
2023/04/20 01:39:01;;;;;;;13.90;8.50;;;;;;;;;;4980975;28;20229;-70
2023/04/20 01:41:30;;;;;;;14.03;8.43;;;;;;;;;;4974402;28;20225;-70
2023/04/20 01:43:56;;;;;;;13.60;8.77;;;;;;;;;;4990897;28;20262;-70
2023/04/20 01:46:23;;;;;;;13.57;8.80;;;;;;;;;;4980514;28;20209;-72
2023/04/20 01:48:49;;;;;;;15.13;8.97;;;;;;;;;;4996494;28;20224;-73
2023/04/20 01:51:16;;;;;;;20.60;11.87;;;;;;;;;;4980233;28;20323;-72
2023/04/20 01:53:42;;;;;;;13.27;8.23;;;;;;;;;;4976020;28;20750;-70
2023/04/20 01:56:09;;;;;;;14.27;8.77;;;;;;;;;;4992799;28;20204;-70
2023/04/20 01:58:37;;;;;;;11.90;8.00;;;;;;;;;;4978542;28;20256;-73
2023/04/20 02:01:03;;;;;;;14.40;8.30;;;;;;;;;;4978069;28;20708;-73
2023/04/20 02:03:29;;;;;;;14.43;8.77;;;;;;;;;;4989718;28;20672;-73
2023/04/20 02:05:55;;;;;;;15.80;9.30;;;;;;;;;;4978007;28;20197;-73
2023/04/20 02:08:25;;;;;;;20.23;13.60;;;;;;;;;;4992553;28;20265;-72
2023/04/20 02:10:51;;;;;;;16.90;10.53;;;;;;;;;;4977916;28;20206;-72
2023/04/20 02:13:18;;;;;;;15.57;10.40;;;;;;;;;;4974809;28;20694;-72
2023/04/20 02:15:46;;;;;;;17.97;11.30;;;;;;;;;;4977389;28;20208;-72
2023/04/20 02:18:14;;;;;;;18.13;9.70;;;;;;;;;;4979897;28;20750;-73
2023/04/20 02:20:41;;;;;;;16.37;9.87;;;;;;;;;;4988875;28;20209;-72
2023/04/20 02:23:07;;;;;;;15.70;9.57;;;;;;;;;;4996554;28;20251;-72
2023/04/20 02:25:35;;;;;;;15.80;10.30;;;;;;;;;;4978923;28;20215;-72
2023/04/20 02:28:01;;;;;;;18.13;10.03;;;;;;;;;;4984427;28;20646;-73
2023/04/20 02:30:28;;;;;;;17.63;11.03;;;;;;;;;;4992504;28;20228;-73
2023/04/20 02:32:55;;;;;;;18.60;11.30;;;;;;;;;;4993954;28;20340;-72
2023/04/20 02:35:23;;;;;;;20.20;11.80;;;;;;;;;;4976621;28;20227;-72
2023/04/20 02:37:50;;;;;;;21.23;12.03;;;;;;;;;;4978388;28;20633;-72
2023/04/20 02:40:16;;;;;;;22.37;12.20;;;;;;;;;;4991671;28;20235;-70
2023/04/20 02:42:42;;;;;;;23.90;13.70;;;;;;;;;;4992515;28;20224;-73
2023/04/20 02:45:11;;;;;;;21.13;12.97;;;;;;;;;;4978846;28;20201;-73
2023/04/20 02:47:37;;;;;;;21.37;13.10;;;;;;;;;;4972020;28;20794;-70
2023/04/20 02:50:06;;;;;;;21.80;12.97;;;;;;;;;;4985587;28;20725;-70
2023/04/20 02:52:40;;;;;;;25.17;12.73;;;;;;;;;;4966433;28;20201;-70
2023/04/20 02:55:07;;;;;;;23.90;13.70;;;;;;;;;;4985637;28;20204;-72
2023/04/20 02:57:34;;;;;;;21.23;13.73;;;;;;;;;;4971370;28;20212;-72
2023/04/20 03:00:00;;;;;;;24.03;14.10;;;;;;;;;;4971549;28;20318;-70
2023/04/20 03:02:38;;;;;;;24.80;14.67;;;;;;;;;;4971655;28;20220;-73
2023/04/20 03:05:06;;;;;;;21.20;12.93;;;;;;;;;;4970492;28;20209;-73
2023/04/20 03:07:40;;;;;;;19.83;12.10;;;;;;;;;;4968402;28;20209;-69
2023/04/20 03:10:10;;;;;;;25.07;14.43;;;;;;;;;;4969279;28;20225;-69
2023/04/20 03:13:08;;;;;;;27.27;14.10;;;;;;;;;;4972008;28;20215;-71
2023/04/20 03:15:48;;;;;;;23.03;12.93;;;;;;;;;;4967433;28;20216;-70
2023/04/20 03:18:27;;;;;;;24.10;13.33;;;;;;;;;;4984837;28;20232;-70
2023/04/20 03:20:55;;;;;;;27.13;14.93;;;;;;;;;;4965386;28;20252;-70
2023/04/20 03:23:21;;;;;;;24.57;13.53;;;;;;;;;;4986105;28;20271;-70
2023/04/20 03:25:49;;;;;;;23.50;13.43;;;;;;;;;;4978189;28;20212;-70
2023/04/20 03:28:26;;;;;;;33.07;15.37;;;;;;;;;;4971286;28;20367;-70
2023/04/20 03:30:52;;;;;;;24.60;13.87;;;;;;;;;;4989927;28;20556;-70
2023/04/20 03:33:19;;;;;;;22.27;14.23;;;;;;;;;;4971560;28;21662;-70
2023/04/20 03:35:45;;;;;;;22.47;12.97;;;;;;;;;;4987318;28;20211;-70
2023/04/20 03:38:13;;;;;;;29.77;14.73;;;;;;;;;;4987434;28;20280;-69
2023/04/20 03:40:39;;;;;;;25.00;14.37;;;;;;;;;;4974715;28;20308;-69
2023/04/20 03:43:06;;;;;;;25.80;13.67;;;;;;;;;;4976011;28;20217;-69
2023/04/20 03:45:32;;;;;;;21.27;12.77;;;;;;;;;;4971951;28;20208;-69
2023/04/20 03:47:58;;;;;;;23.17;13.13;;;;;;;;;;4969345;28;20876;-69
2023/04/20 03:50:26;;;;;;;22.10;13.10;;;;;;;;;;4972014;28;20228;-70
2023/04/20 03:52:52;;;;;;;23.00;13.50;;;;;;;;;;4970791;28;20208;-69
2023/04/20 03:55:21;;;;;;;19.13;11.87;;;;;;;;;;4977044;28;20209;-68
2023/04/20 03:57:54;;;;;;;22.77;13.33;;;;;;;;;;4993320;28;20219;-69
2023/04/20 04:00:22;;;;;;;21.80;12.93;;;;;;;;;;4972680;28;20224;-69
2023/04/20 04:02:48;;;;;;;23.17;14.23;;;;;;;;;;4976156;28;20959;-69
2023/04/20 04:05:22;;;;;;;21.97;12.50;;;;;;;;;;4972454;23;20784;-70
2023/04/20 04:07:49;;;;;;;21.60;12.90;;;;;;;;;;4948437;28;20293;-70
2023/04/20 04:10:17;;;;;;;23.43;14.60;;;;;;;;;;4934832;28;20724;-69
2023/04/20 04:12:45;;;;;;;23.27;13.67;;;;;;;;;;4928290;28;20206;-70
2023/04/20 04:15:12;;;;;;;21.37;12.93;;;;;;;;;;4942109;28;20248;-70
2023/04/20 04:17:46;;;;;;;22.87;12.73;;;;;;;;;;4949344;28;20400;-70
2023/04/20 04:20:13;;;;;;;24.97;14.00;;;;;;;;;;4963801;28;20212;-69
2023/04/20 04:22:40;;;;;;;23.83;13.70;;;;;;;;;;4946338;28;20225;-70
2023/04/20 04:25:30;;;;;;;24.60;13.60;;;;;;;;;;4949049;28;20244;-70
2023/04/20 04:27:59;;;;;;;21.00;11.90;;;;;;;;;;4964346;28;20622;-70
2023/04/20 04:30:28;;;;;;;24.60;13.63;;;;;;;;;;4953793;28;20299;-70
2023/04/20 04:32:55;;;;;;;23.43;13.50;;;;;;;;;;4955894;28;20212;-70
2023/04/20 04:35:22;;;;;;;21.97;13.27;;;;;;;;;;4959251;28;20303;-70
2023/04/20 04:37:48;;;;;;;26.40;14.17;;;;;;;;;;4944839;28;20692;-70
2023/04/20 04:40:17;;;;;;;24.90;13.43;;;;;;;;;;4965386;28;20229;-69
2023/04/20 04:42:44;;;;;;;26.17;14.03;;;;;;;;;;4943520;28;20695;-69
2023/04/20 04:45:13;;;;;;;25.90;13.67;;;;;;;;;;4945525;28;20291;-71
2023/04/20 04:47:42;;;;;;;24.83;14.17;;;;;;;;;;4946961;28;20209;-70
2023/04/20 04:50:09;;;;;;;29.37;16.13;;;;;;;;;;4942365;28;20201;-70
2023/04/20 04:52:35;;;;;;;28.50;15.33;;;;;;;;;;4944848;28;20301;-70
2023/04/20 04:55:06;;;;;;;32.53;17.77;;;;;;;;;;4969322;28;20557;-69
2023/04/20 04:57:33;;;;;;;28.80;15.20;;;;;;;;;;4966367;28;20300;-70
2023/04/20 05:00:00;;;;;;;29.37;15.27;;;;;;;;;;4950030;28;20252;-70
2023/04/20 05:02:28;;;;;;;28.87;16.90;;;;;;;;;;4957482;28;20798;-70
2023/04/20 05:04:55;;;;;;;29.13;14.23;;;;;;;;;;4967110;28;20600;-70
2023/04/20 05:07:21;;;;;;;29.23;16.07;;;;;;;;;;4970282;28;20527;-70
2023/04/20 05:09:48;;;;;;;35.77;19.80;;;;;;;;;;4977542;28;20303;-70
2023/04/20 05:12:14;;;;;;;31.27;14.93;;;;;;;;;;4977848;28;20205;-70
2023/04/20 05:14:41;;;;;;;37.40;19.87;;;;;;;;;;4976450;28;20307;-70
2023/04/20 05:17:07;;;;;;;35.93;19.03;;;;;;;;;;4977239;28;20672;-71
2023/04/20 05:19:35;;;;;;;28.87;16.40;;;;;;;;;;4981199;28;20559;-70
2023/04/20 05:22:02;;;;;;;31.63;16.10;;;;;;;;;;4980207;28;20249;-70
2023/04/20 05:24:28;;;;;;;36.60;18.33;;;;;;;;;;4961692;28;20609;-70
2023/04/20 05:26:54;;;;;;;28.70;16.30;;;;;;;;;;4976983;28;20580;-70
2023/04/20 05:29:21;;;;;;;33.13;15.60;;;;;;;;;;4970389;28;20224;-69
2023/04/20 05:31:47;;;;;;;23.60;14.30;;;;;;;;;;4979704;28;20516;-70
2023/04/20 05:34:14;;;;;;;25.00;14.60;;;;;;;;;;4980991;28;20221;-70
2023/04/20 05:36:42;;;;;;;28.37;15.90;;;;;;;;;;4976786;28;20201;-70
2023/04/20 05:39:09;;;;;;;26.43;15.73;;;;;;;;;;4983667;28;20212;-70
2023/04/20 05:41:35;;;;;;;26.60;14.37;;;;;;;;;;4980763;28;20201;-70
2023/04/20 05:44:02;;;;;;;35.00;18.87;;;;;;;;;;4980663;28;20715;-70
2023/04/20 05:46:29;;;;;;;40.93;19.73;;;;;;;;;;4981876;28;20205;-71
2023/04/20 05:48:55;;;;;;;26.87;15.20;;;;;;;;;;4980972;28;20213;-70
2023/04/20 05:51:23;;;;;;;24.73;14.63;;;;;;;;;;4980327;28;20201;-71
2023/04/20 05:53:51;;;;;;;26.17;14.47;;;;;;;;;;4962958;28;20543;-70
2023/04/20 05:56:18;;;;;;;22.23;13.83;;;;;;;;;;4981230;28;20212;-69
2023/04/20 05:58:44;;;;;;;26.40;15.60;;;;;;;;;;4983109;28;20682;-71
2023/04/20 06:01:11;;;;;;;26.63;14.83;;;;;;;;;;4979703;28;20209;-70
2023/04/20 06:03:37;;;;;;;25.63;14.27;;;;;;;;;;4980024;28;20240;-70
2023/04/20 06:06:04;;;;;;;25.37;13.93;;;;;;;;;;4983806;28;20221;-70
2023/04/20 06:08:30;;;;;;;24.80;13.70;;;;;;;;;;4983463;28;20208;-70
2023/04/20 06:10:58;;;;;;;23.57;13.47;;;;;;;;;;4981500;28;20205;-70
2023/04/20 06:13:25;;;;;;;24.60;14.33;;;;;;;;;;4983330;28;20604;-70
2023/04/20 06:15:52;;;;;;;26.20;14.43;;;;;;;;;;4982523;28;20229;-71
2023/04/20 06:18:19;;;;;;;25.20;14.17;;;;;;;;;;4981636;28;20209;-70
2023/04/20 06:20:45;;;;;;;24.50;14.70;;;;;;;;;;4980648;28;20212;-70
2023/04/20 06:23:12;;;;;;;24.37;13.57;;;;;;;;;;4978485;28;20240;-70
2023/04/20 06:25:38;;;;;;;23.07;12.70;;;;;;;;;;4980637;28;20221;-70
2023/04/20 06:28:06;;;;;;;25.00;13.40;;;;;;;;;;4981151;28;20271;-70
2023/04/20 06:30:33;;;;;;;22.70;12.90;;;;;;;;;;4981096;28;20288;-68
2023/04/20 06:33:00;;;;;;;22.60;14.73;;;;;;;;;;4973919;28;20202;-70
2023/04/20 06:35:26;;;;;;;24.13;13.77;;;;;;;;;;4983573;28;20316;-70
2023/04/20 06:37:54;;;;;;;20.97;13.37;;;;;;;;;;4981693;28;20317;-70
2023/04/20 06:40:21;;;;;;;21.07;12.53;;;;;;;;;;4981474;28;20206;-70
2023/04/20 06:42:47;;;;;;;23.50;13.50;;;;;;;;;;4963829;28;20647;-70
2023/04/20 06:45:17;;;;;;;24.67;14.53;;;;;;;;;;4982846;28;20588;-70
2023/04/20 06:47:43;;;;;;;24.40;13.60;;;;;;;;;;4981497;28;20791;-70
2023/04/20 06:50:10;;;;;;;20.00;12.93;;;;;;;;;;4979853;28;20446;-70
2023/04/20 06:52:37;;;;;;;26.53;15.50;;;;;;;;;;4983006;28;20204;-70
2023/04/20 06:55:04;;;;;;;23.00;13.73;;;;;;;;;;4982084;28;20827;-70
2023/04/20 06:57:31;;;;;;;22.57;12.67;;;;;;;;;;4983307;28;20201;-70
2023/04/20 06:59:58;;;;;;;21.33;12.83;;;;;;;;;;4981355;28;20603;-70
2023/04/20 07:02:27;;;;;;;19.47;12.10;;;;;;;;;;4980159;28;20283;-70
2023/04/20 07:04:53;;;;;;;19.50;11.73;;;;;;;;;;4980940;28;20703;-70
2023/04/20 07:07:19;;;;;;;19.90;12.20;;;;;;;;;;4979964;28;20224;-70
2023/04/20 07:09:46;;;;;;;23.10;12.37;;;;;;;;;;4979678;28;20518;-70
2023/04/20 07:12:14;;;;;;;21.13;12.93;;;;;;;;;;4961581;28;20324;-70
2023/04/20 07:14:40;;;;;;;21.47;12.53;;;;;;;;;;4980652;28;20225;-70
2023/04/20 07:17:07;;;;;;;20.70;11.90;;;;;;;;;;4981260;28;20205;-70
2023/04/20 07:19:35;;;;;;;19.03;11.73;;;;;;;;;;4982840;28;20205;-71
2023/04/20 07:22:02;;;;;;;16.93;11.47;;;;;;;;;;4979649;28;20259;-70
2023/04/20 07:24:28;;;;;;;17.20;11.30;;;;;;;;;;4979359;28;20703;-70
2023/04/20 07:26:56;;;;;;;16.10;10.43;;;;;;;;;;4977562;28;20233;-70
2023/04/20 07:29:22;;;;;;;16.97;10.53;;;;;;;;;;4982250;28;20197;-70
2023/04/20 07:31:48;;;;;;;20.27;11.53;;;;;;;;;;4980802;28;20698;-70
2023/04/20 07:34:15;;;;;;;17.90;11.13;;;;;;;;;;4961372;28;20232;-71
2023/04/20 07:36:43;;;;;;;19.17;11.70;;;;;;;;;;4982621;28;20197;-71
2023/04/20 07:39:10;;;;;;;19.03;11.00;;;;;;;;;;4978809;28;20473;-70
2023/04/20 07:41:36;;;;;;;17.43;10.40;;;;;;;;;;4981032;28;20733;-71
2023/04/20 07:44:03;;;;;;;14.20;9.20;;;;;;;;;;4979304;28;20222;-71
2023/04/20 07:46:30;;;;;;;15.30;10.13;;;;;;;;;;4979746;28;20690;-69
2023/04/20 07:48:56;;;;;;;14.07;9.13;;;;;;;;;;4978405;28;20362;-70
2023/04/20 07:51:23;;;;;;;12.80;8.57;;;;;;;;;;4980799;28;20214;-70
2023/04/20 07:53:50;;;;;;;13.63;9.67;;;;;;;;;;4982183;28;20194;-70
2023/04/20 07:56:17;;;;;;;13.70;8.87;;;;;;;;;;4981090;28;20256;-70
2023/04/20 07:58:43;;;;;;;11.97;7.93;;;;;;;;;;4965343;28;20590;-71
2023/04/20 08:01:10;;;;;;;13.67;8.73;;;;;;;;;;4977730;28;20205;-71
2023/04/20 08:03:37;;;;;;;15.63;9.90;;;;;;;;;;4981232;28;20575;-70
2023/04/20 08:06:04;;;;;;;15.43;8.33;;;;;;;;;;4980319;28;20293;-70
2023/04/20 08:08:31;;;;;;;13.40;8.80;;;;;;;;;;4982295;28;20446;-70
2023/04/20 08:10:58;;;;;;;18.47;9.70;;;;;;;;;;4980655;28;20568;-70
2023/04/20 08:13:26;;;;;;;15.90;9.13;;;;;;;;;;4977492;28;20212;-71
2023/04/20 08:15:53;;;;;;;16.00;9.57;;;;;;;;;;4961627;28;20229;-71
2023/04/20 08:18:20;;;;;;;14.87;8.77;;;;;;;;;;4981993;28;20209;-70
2023/04/20 08:20:46;;;;;;;17.97;10.70;;;;;;;;;;4980652;28;20205;-70
2023/04/20 08:23:13;;;;;;;19.50;10.77;;;;;;;;;;4979657;28;20241;-69
2023/04/20 08:25:40;;;;;;;15.30;9.70;;;;;;;;;;4982071;28;20304;-70
2023/04/20 08:28:11;;;;;;;14.60;9.63;;;;;;;;;;4980918;28;20228;-69
2023/04/20 08:30:39;;;;;;;15.17;8.40;;;;;;;;;;4981204;28;20201;-70
2023/04/20 08:33:06;;;;;;;18.57;10.53;;;;;;;;;;4979462;28;20205;-69
2023/04/20 08:35:32;;;;;;;14.30;9.97;;;;;;;;;;4961193;28;20229;-70
2023/04/20 08:37:59;;;;;;;13.47;8.97;;;;;;;;;;4981864;28;20209;-70
2023/04/20 08:40:27;;;;;;;14.37;8.77;;;;;;;;;;4981814;28;21024;-70
2023/04/20 08:42:53;;;;;;;15.37;9.67;;;;;;;;;;4977454;28;20256;-69
2023/04/20 08:45:21;;;;;;;16.10;10.00;;;;;;;;;;4980435;28;20587;-70
2023/04/20 08:47:49;;;;;;;12.13;8.90;;;;;;;;;;4981018;28;20206;-70
2023/04/20 08:50:16;;;;;;;12.00;8.37;;;;;;;;;;4981417;28;20541;-69
2023/04/20 08:52:42;;;;;;;11.90;8.50;;;;;;;;;;4980331;28;20200;-70
2023/04/20 08:55:09;;;;;;;14.30;9.53;;;;;;;;;;4976749;28;20287;-69
2023/04/20 08:57:35;;;;;;;15.97;10.00;;;;;;;;;;4979434;28;20216;-69
2023/04/20 09:00:07;;;;;;;15.37;10.33;;;;;;;;;;4978647;28;20262;-69
2023/04/20 09:02:34;;;;;;;13.70;8.73;;;;;;;;;;4979109;28;21534;-70
2023/04/20 09:05:03;;;;;;;16.70;10.27;;;;;;;;;;4982614;28;20222;-70
2023/04/20 09:07:29;;;;;;;14.87;9.37;;;;;;;;;;4981617;28;20206;-70
2023/04/20 09:09:56;;;;;;;16.43;10.07;;;;;;;;;;4979446;28;20234;-70
2023/04/20 09:12:23;;;;;;;15.67;9.63;;;;;;;;;;4961032;28;20207;-70
2023/04/20 09:14:51;;;;;;;18.43;11.07;;;;;;;;;;4980418;28;20217;-70
2023/04/20 09:17:31;;;;;;;16.93;10.37;;;;;;;;;;4980421;28;20237;-70
2023/04/20 09:19:58;;;;;;;16.43;9.77;;;;;;;;;;4980695;28;20244;-70
2023/04/20 09:22:31;;;;;;;15.47;9.87;;;;;;;;;;4982152;28;20763;-70
2023/04/20 09:24:57;;;;;;;14.17;9.53;;;;;;;;;;4979719;28;20222;-70
2023/04/20 09:27:25;;;;;;;15.97;9.40;;;;;;;;;;4983910;28;20609;-69
2023/04/20 09:29:56;;;;;;;15.93;10.17;;;;;;;;;;4983562;28;20577;-69
2023/04/20 09:32:23;;;;;;;15.87;10.13;;;;;;;;;;4982599;28;20207;-69
2023/04/20 09:34:49;;;;;;;14.77;9.23;;;;;;;;;;4966989;28;20312;-70
2023/04/20 09:37:18;;;;;;;16.53;10.00;;;;;;;;;;4980667;28;20670;-70
2023/04/20 09:39:45;;;;;;;14.00;9.97;;;;;;;;;;4981118;28;20717;-69
2023/04/20 09:42:13;;;;;;;14.40;8.83;;;;;;;;;;4983281;28;20207;-69
2023/04/20 09:44:40;;;;;;;19.03;10.40;;;;;;;;;;4981375;28;20239;-69
2023/04/20 09:47:07;;;;;;;17.23;10.30;;;;;;;;;;4983216;28;20201;-69
2023/04/20 09:49:34;;;;;;;18.80;11.00;;;;;;;;;;4981247;28;20267;-69
2023/04/20 09:52:02;;;;;;;21.23;11.97;;;;;;;;;;4982905;28;20205;-69
2023/04/20 09:54:30;;;;;;;16.70;9.80;;;;;;;;;;4982169;28;20232;-69
2023/04/20 09:56:58;;;;;;;15.17;9.67;;;;;;;;;;4983834;28;20201;-70
2023/04/20 09:59:25;;;;;;;13.73;8.73;;;;;;;;;;4983882;28;20296;-69
2023/04/20 10:01:52;;;;;;;10.80;8.00;;;;;;;;;;4966366;28;20205;-69
2023/04/20 10:04:18;;;;;;;11.10;8.20;;;;;;;;;;4976846;28;20562;-69
2023/04/20 10:06:52;;;;;;;12.07;8.33;;;;;;;;;;4984149;28;20206;-70
2023/04/20 10:09:20;;;;;;;12.03;8.63;;;;;;;;;;4963649;28;20211;-70
2023/04/20 10:11:49;;;;;;;11.57;8.00;;;;;;;;;;4982950;28;20241;-70
2023/04/20 10:14:16;;;;;;;14.50;8.87;;;;;;;;;;4966893;28;20218;-70
2023/04/20 10:16:42;;;;;;;10.40;7.30;;;;;;;;;;4984965;28;20206;-71
2023/04/20 10:19:09;;;;;;;17.90;10.73;;;;;;;;;;4982577;28;20207;-70
2023/04/20 10:21:44;;;;;;;10.57;7.83;;;;;;;;;;4984057;28;20210;-71
2023/04/20 10:24:11;;;;;;;11.67;8.47;;;;;;;;;;4978362;28;20238;-70
2023/04/20 10:26:38;;;;;;;18.13;11.23;;;;;;;;;;4982654;28;20196;-70
2023/04/20 10:29:06;;;;;;;15.23;9.93;;;;;;;;;;4982226;28;20206;-70
2023/04/20 10:31:37;;;;;;;20.43;13.90;;;;;;;;;;4981704;28;20211;-70
2023/04/20 10:34:04;;;;;;;14.77;9.00;;;;;;;;;;4981338;28;20287;-69
2023/04/20 10:36:32;;;;;;;13.37;9.63;;;;;;;;;;4983050;28;20290;-70
2023/04/20 10:39:00;;;;;;;12.20;8.67;;;;;;;;;;4978861;28;20240;-70
2023/04/20 10:41:27;;;;;;;17.13;10.03;;;;;;;;;;4967821;28;20707;-70
2023/04/20 10:43:53;;;;;;;13.17;9.13;;;;;;;;;;4962492;28;20227;-72
2023/04/20 10:46:22;;;;;;;14.23;9.70;;;;;;;;;;4979914;28;20212;-69
2023/04/20 10:48:52;;;;;;;16.70;10.30;;;;;;;;;;4983038;28;20215;-69
2023/04/20 10:51:19;;;;;;;18.33;11.37;;;;;;;;;;4980861;28;20227;-70
2023/04/20 10:53:45;;;;;;;18.87;12.03;;;;;;;;;;4981047;28;20212;-72
2023/04/20 10:56:12;;;;;;;19.00;11.23;;;;;;;;;;4983246;28;20226;-72
2023/04/20 10:58:39;;;;;;;16.27;10.37;;;;;;;;;;4980935;28;20208;-71
2023/04/20 11:01:06;;;;;;;18.80;11.77;;;;;;;;;;4979870;28;20208;-71
2023/04/20 11:03:34;;;;;;;20.73;11.70;;;;;;;;;;4975708;28;20208;-71
2023/04/20 11:06:02;;;;;;;16.60;11.10;;;;;;;;;;4981518;28;20365;-72
2023/04/20 11:08:35;;;;;;;18.97;11.17;;;;;;;;;;4982428;28;20570;-72
2023/04/20 11:11:02;;;;;;;20.40;11.93;;;;;;;;;;4982782;28;20204;-71
2023/04/20 11:13:29;;;;;;;16.27;11.20;;;;;;;;;;4983280;28;20737;-71
2023/04/20 11:15:56;;;;;;;16.83;11.00;;;;;;;;;;4978306;28;20287;-72
2023/04/20 11:18:23;;;;;;;17.77;11.40;;;;;;;;;;4982342;28;20715;-71
2023/04/20 11:20:52;;;;;;;14.83;10.67;;;;;;;;;;4980535;28;20209;-72
2023/04/20 11:23:19;;;;;;;15.47;10.40;;;;;;;;;;4965281;28;20217;-72
2023/04/20 11:25:49;;;;;;;15.27;10.77;;;;;;;;;;4979982;28;20648;-72
2023/04/20 11:28:16;;;;;;;19.03;12.03;;;;;;;;;;4979630;28;20703;-71
2023/04/20 11:30:43;;;;;;;16.83;11.27;;;;;;;;;;4960869;28;20304;-72
2023/04/20 11:33:09;;;;;;;17.57;11.77;;;;;;;;;;4980352;28;20201;-72
2023/04/20 11:35:37;;;;;;;16.30;11.03;;;;;;;;;;4982979;28;20221;-71
2023/04/20 11:38:05;;;;;;;20.13;12.27;;;;;;;;;;4983341;28;20255;-71
2023/04/20 11:40:31;;;;;;;20.47;12.07;;;;;;;;;;4978881;28;20209;-71
2023/04/20 11:42:59;;;;;;;19.07;11.50;;;;;;;;;;4981061;28;20200;-72
2023/04/20 11:45:26;;;;;;;17.60;11.70;;;;;;;;;;4981733;28;20232;-72
2023/04/20 11:47:54;;;;;;;21.87;12.90;;;;;;;;;;4981445;28;20283;-70
2023/04/20 11:50:21;;;;;;;17.93;12.00;;;;;;;;;;4980530;28;20288;-72
2023/04/20 11:52:47;;;;;;;17.77;11.70;;;;;;;;;;4981968;28;20205;-72
2023/04/20 11:55:16;;;;;;;16.97;11.30;;;;;;;;;;4964968;28;20228;-71
2023/04/20 11:57:42;;;;;;;19.50;12.40;;;;;;;;;;4981721;28;20213;-72
2023/04/20 12:00:09;;;;;;;18.27;12.13;;;;;;;;;;4977811;28;20672;-72
2023/04/20 12:02:42;;;;;;;18.17;11.20;;;;;;;;;;4980933;28;20205;-70
2023/04/20 12:05:09;;;;;;;14.83;11.13;;;;;;;;;;4981911;28;20566;-71
2023/04/20 12:07:36;;;;;;;16.73;11.37;;;;;;;;;;4963391;28;20218;-71
2023/04/20 12:10:03;;;;;;;16.37;10.50;;;;;;;;;;4978576;28;20212;-72
2023/04/20 12:12:32;;;;;;;16.00;10.57;;;;;;;;;;4964678;28;20201;-71
2023/04/20 12:14:59;;;;;;;16.23;10.57;;;;;;;;;;4962067;28;20241;-70
2023/04/20 12:17:26;;;;;;;18.03;11.00;;;;;;;;;;4964619;28;20307;-72
2023/04/20 12:19:53;;;;;;;18.57;10.63;;;;;;;;;;4980993;28;20200;-70
2023/04/20 12:22:20;;;;;;;17.47;10.57;;;;;;;;;;4979703;28;20209;-71
2023/04/20 12:24:47;;;;;;;15.00;9.93;;;;;;;;;;4961570;28;21320;-71
2023/04/20 12:27:14;;;;;;;15.67;10.50;;;;;;;;;;4957316;28;20262;-71
2023/04/20 12:29:41;;;;;;;15.03;10.10;;;;;;;;;;4981428;28;20212;-70
2023/04/20 12:32:08;;;;;;;14.17;9.53;;;;;;;;;;4976673;28;20217;-70
2023/04/20 12:34:35;;;;;;;14.17;9.40;;;;;;;;;;4963995;28;20271;-71
2023/04/20 12:37:02;;;;;;;16.60;11.00;;;;;;;;;;4980202;28;20206;-71
2023/04/20 12:39:29;;;;;;;15.90;11.00;;;;;;;;;;4980514;28;20220;-70
2023/04/20 12:41:56;;;;;;;16.57;10.77;;;;;;;;;;4980805;28;20207;-71
2023/04/20 12:44:23;;;;;;;17.83;11.37;;;;;;;;;;4978141;28;20221;-71
2023/04/20 12:46:51;;;;;;;15.30;10.67;;;;;;;;;;4979151;28;20243;-71
2023/04/20 12:49:17;;;;;;;20.63;13.27;;;;;;;;;;4980380;28;20213;-71
2023/04/20 12:51:44;;;;;;;14.00;10.13;;;;;;;;;;4961923;28;20568;-72
2023/04/20 12:54:11;;;;;;;13.77;9.30;;;;;;;;;;4981823;28;20302;-71
2023/04/20 12:56:38;;;;;;;22.73;13.40;;;;;;;;;;4984417;28;20609;-71
2023/04/20 12:59:04;;;;;;;33.00;19.33;;;;;;;;;;4984866;28;20205;-72
2023/04/20 13:01:31;;;;;;;19.27;13.57;;;;;;;;;;4983624;28;20205;-71
2023/04/20 13:03:59;;;;;;;14.93;9.97;;;;;;;;;;4983491;28;20694;-71
2023/04/20 13:06:26;;;;;;;13.70;9.50;;;;;;;;;;4982275;28;20315;-71
2023/04/20 13:08:53;;;;;;;12.80;9.73;;;;;;;;;;4986109;28;20442;-71
2023/04/20 13:11:20;;;;;;;14.77;9.47;;;;;;;;;;4983773;28;20205;-71
2023/04/20 13:13:47;;;;;;;13.53;8.43;;;;;;;;;;4984563;28;20226;-71
2023/04/20 13:16:14;;;;;;;14.03;9.40;;;;;;;;;;4963944;28;20217;-72
2023/04/20 13:18:40;;;;;;;14.33;9.47;;;;;;;;;;4966200;28;20236;-70
2023/04/20 13:21:09;;;;;;;12.37;9.07;;;;;;;;;;4984994;28;20621;-71
2023/04/20 13:23:36;;;;;;;14.63;9.00;;;;;;;;;;4984389;28;20205;-71
2023/04/20 13:26:03;;;;;;;13.03;9.17;;;;;;;;;;4980646;28;20304;-70
2023/04/20 13:28:30;;;;;;;14.10;8.83;;;;;;;;;;4984239;28;20207;-71
2023/04/20 13:30:57;;;;;;;14.43;8.90;;;;;;;;;;4984973;28;20208;-71
2023/04/20 13:33:23;;;;;;;15.67;8.70;;;;;;;;;;4985269;28;20608;-74
2023/04/20 13:35:50;;;;;;;12.40;8.07;;;;;;;;;;4981642;28;20224;-71
2023/04/20 13:38:18;;;;;;;11.43;7.80;;;;;;;;;;4972895;28;20280;-70
2023/04/20 13:40:45;;;;;;;11.13;7.77;;;;;;;;;;4969674;28;20722;-72
2023/04/20 13:43:12;;;;;;;12.00;7.83;;;;;;;;;;4974554;28;20676;-70
2023/04/20 13:45:39;;;;;;;13.33;8.03;;;;;;;;;;4961141;28;20278;-69
2023/04/20 13:48:05;;;;;;;13.93;7.90;;;;;;;;;;4970666;28;21028;-70
2023/04/20 13:50:32;;;;;;;12.60;8.03;;;;;;;;;;4968701;28;20201;-71
2023/04/20 13:52:58;;;;;;;10.63;7.40;;;;;;;;;;4973800;28;20201;-72
2023/04/20 13:55:26;;;;;;;13.30;7.70;;;;;;;;;;4972943;28;20645;-71
2023/04/20 13:57:53;;;;;;;10.53;6.63;;;;;;;;;;4971818;28;20212;-71
2023/04/20 14:00:20;;;;;;;10.33;6.47;;;;;;;;;;4980168;28;20205;-71
2023/04/20 14:02:46;;;;;;;10.33;6.57;;;;;;;;;;4974984;28;20576;-69
2023/04/20 14:05:13;;;;;;;10.10;7.10;;;;;;;;;;4952215;28;20276;-72
2023/04/20 14:07:40;;;;;;;8.33;6.40;;;;;;;;;;4974637;28;20221;-71
2023/04/20 14:10:07;;;;;;;7.33;6.00;;;;;;;;;;4975132;28;20275;-71
2023/04/20 14:12:34;;;;;;;9.13;6.33;;;;;;;;;;4975317;28;20198;-71
2023/04/20 14:15:01;;;;;;;7.53;6.10;;;;;;;;;;4974200;28;20222;-71
2023/04/20 14:17:28;;;;;;;8.97;6.00;;;;;;;;;;4972769;28;20208;-71
2023/04/20 14:19:54;;;;;;;10.53;6.80;;;;;;;;;;4971760;28;20221;-69
2023/04/20 14:22:21;;;;;;;11.00;6.30;;;;;;;;;;4969717;28;20209;-69
2023/04/20 14:24:47;;;;;;;9.17;6.87;;;;;;;;;;4972691;28;20239;-70